Time;durP1;ratioP1;P1;durP2;ratioP2;P2;SDS_P1;SDS_P2;PMS_P1;PMS_P2;Temp;Humidity;BMP_temperature;BMP_pressure;BME280_temperature;BME280_humidity;BME280_pressure;Samples;Min_cycle;Max_cycle;Signal;HPM_P1;HPM_P2
2022/08/20 00:00:38;;;;;;;0.32;0.30;;;16.80;96.00;;;;;;5083455;28;20087;-75
2022/08/20 00:03:17;;;;;;;0.30;0.30;;;16.70;96.10;;;;;;5083011;28;20095;-75
2022/08/20 00:05:48;;;;;;;0.30;0.30;;;16.70;96.10;;;;;;5083388;28;20094;-77
2022/08/20 00:08:16;;;;;;;0.60;0.40;;;16.70;96.20;;;;;;5051842;28;20131;-75
2022/08/20 00:10:43;;;;;;;0.38;0.38;;;16.70;96.60;;;;;;5083826;28;20088;-75
2022/08/20 00:13:16;;;;;;;0.30;0.30;;;16.60;96.90;;;;;;5080372;28;20056;-75
2022/08/20 00:15:44;;;;;;;0.50;0.30;;;16.60;97.00;;;;;;5067696;28;20410;-75
2022/08/20 00:18:10;;;;;;;0.70;0.40;;;16.50;97.50;;;;;;5083965;28;20359;-75
2022/08/20 00:20:41;;;;;;;0.57;0.40;;;16.50;98.00;;;;;;5083836;28;20058;-76
2022/08/20 00:23:08;;;;;;;0.30;0.30;;;16.40;98.30;;;;;;5084387;28;20087;-75
2022/08/20 00:25:36;;;;;;;0.60;0.47;;;16.40;98.50;;;;;;5066334;28;20066;-76
2022/08/20 00:28:03;;;;;;;0.52;0.43;;;16.40;98.70;;;;;;5085787;28;20047;-75
2022/08/20 00:30:31;;;;;;;0.43;0.28;;;16.30;99.10;;;;;;5083848;28;20055;-76
2022/08/20 00:33:00;;;;;;;0.73;0.55;;;16.30;99.60;;;;;;5084558;28;20131;-75
2022/08/20 00:35:28;;;;;;;0.45;0.30;;;16.20;99.90;;;;;;5066496;28;20086;-75
2022/08/20 00:37:55;;;;;;;0.57;0.40;;;16.20;99.90;;;;;;5066165;28;20109;-77
2022/08/20 00:40:38;;;;;;;0.70;0.22;;;16.10;99.90;;;;;;5083086;28;20047;-76
2022/08/20 00:43:07;;;;;;;0.47;0.32;;;16.10;99.90;;;;;;5082922;28;20056;-77
2022/08/20 00:45:34;;;;;;;0.35;0.35;;;16.00;99.90;;;;;;5066877;28;20285;-77
2022/08/20 00:48:01;;;;;;;0.35;0.22;;;16.00;99.90;;;;;;5066604;28;20138;-75
2022/08/20 00:50:37;;;;;;;0.40;0.40;;;16.00;99.90;;;;;;5082808;28;20097;-76
2022/08/20 00:53:04;;;;;;;0.40;0.40;;;16.00;99.90;;;;;;5084695;28;20051;-76
2022/08/20 00:55:32;;;;;;;0.20;0.20;;;15.90;99.90;;;;;;5082794;28;20087;-76
2022/08/20 00:58:01;;;;;;;0.40;0.30;;;15.90;99.90;;;;;;5067220;28;20055;-76
2022/08/20 01:00:31;;;;;;;0.30;0.30;;;15.80;99.90;;;;;;5066742;28;20040;-76
2022/08/20 01:02:59;;;;;;;0.45;0.38;;;15.80;99.90;;;;;;5084295;28;20048;-76
2022/08/20 01:05:27;;;;;;;0.52;0.32;;;15.80;99.90;;;;;;5082074;28;20048;-76
2022/08/20 01:07:55;;;;;;;0.55;0.35;;;15.80;99.90;;;;;;5084612;28;20433;-77
2022/08/20 01:10:26;;;;;;;0.43;0.20;;;15.80;99.90;;;;;;5065321;28;20052;-75
2022/08/20 01:12:55;;;;;;;0.60;0.50;;;15.80;99.90;;;;;;5084508;28;20060;-77
2022/08/20 01:15:27;;;;;;;0.90;0.60;;;15.70;99.90;;;;;;5066818;28;20040;-76
2022/08/20 01:17:57;;;;;;;0.57;0.40;;;15.70;99.90;;;;;;5084624;28;20453;-77
2022/08/20 01:20:27;;;;;;;0.50;0.30;;;15.70;99.90;;;;;;5065343;28;20044;-75
2022/08/20 01:23:29;;;;;;;0.35;0.35;;;15.80;99.90;;;;;;5049950;28;20094;-76
2022/08/20 01:26:13;;;;;;;0.32;0.32;;;15.80;99.90;;;;;;5082634;28;20044;-76
2022/08/20 01:28:49;;;;;;;0.40;0.32;;;15.70;99.90;;;;;;5084432;28;20052;-76
2022/08/20 01:39:25;;;;;;;0.40;0.30;;;15.60;99.90;;;;;;5682800;22;20056;-86
2022/08/20 01:42:11;;;;;;;0.70;0.45;;;15.50;99.90;;;;;;5052519;28;20082;-88
2022/08/20 01:44:39;;;;;;;0.60;0.50;;;15.50;99.90;;;;;;5032517;28;20103;-88
2022/08/20 01:47:14;;;;;;;0.47;0.40;;;15.50;99.90;;;;;;5033507;28;20060;-87
2022/08/20 01:49:44;;;;;;;0.28;0.20;;;15.50;99.90;;;;;;5034309;28;20052;-87
2022/08/20 01:52:13;;;;;;;0.95;0.32;;;15.50;99.90;;;;;;5017130;28;20101;-86
2022/08/20 01:54:40;;;;;;;0.68;0.30;;;15.50;99.90;;;;;;5041948;28;20148;-87
2022/08/20 01:57:15;;;;;;;0.25;0.20;;;15.40;99.90;;;;;;5018313;28;20097;-88
2022/08/20 01:59:42;;;;;;;0.20;0.20;;;15.40;99.90;;;;;;5016221;28;20111;-87
2022/08/20 02:02:09;;;;;;;0.47;0.38;;;15.30;99.90;;;;;;5031259;28;20045;-87
2022/08/20 02:04:36;;;;;;;0.32;0.30;;;15.30;99.90;;;;;;5021052;28;20121;-86
2022/08/20 02:07:04;;;;;;;0.20;0.20;;;15.30;99.90;;;;;;5038219;28;20214;-88
2022/08/20 02:09:38;;;;;;;0.30;0.30;;;15.20;99.90;;;;;;5019308;28;20554;-85
2022/08/20 02:12:06;;;;;;;0.30;0.30;;;15.20;99.90;;;;;;5034272;28;20110;-86
2022/08/20 02:14:33;;;;;;;0.40;0.30;;;15.10;99.90;;;;;;5036031;28;20056;-88
2022/08/20 02:17:00;;;;;;;0.20;0.20;;;15.00;99.90;;;;;;5052025;28;20102;-84
2022/08/20 02:19:30;;;;;;;0.47;0.47;;;14.90;99.90;;;;;;5051510;28;20435;-85
2022/08/20 02:21:58;;;;;;;0.98;0.20;;;14.80;99.90;;;;;;5038049;28;20102;-86
2022/08/20 02:24:25;;;;;;;0.35;0.30;;;14.70;99.90;;;;;;5015513;28;20056;-85
2022/08/20 02:26:53;;;;;;;0.75;0.47;;;14.70;99.90;;;;;;5015285;28;20048;-87
2022/08/20 02:29:20;;;;;;;0.17;0.17;;;14.60;99.90;;;;;;5029310;28;20064;-86
2022/08/20 02:31:47;;;;;;;0.22;0.22;;;14.50;99.90;;;;;;5036536;28;20060;-87
2022/08/20 02:34:34;;;;;;;0.30;0.30;;;14.50;99.90;;;;;;5043776;28;20056;-85
2022/08/20 02:37:02;;;;;;;0.50;0.30;;;14.50;99.90;;;;;;5054458;28;20045;-86
2022/08/20 02:39:30;;;;;;;0.43;0.40;;;14.40;99.90;;;;;;5023249;28;20086;-85
2022/08/20 02:41:57;;;;;;;0.55;0.30;;;14.40;99.90;;;;;;5019269;28;20506;-85
2022/08/20 02:44:24;;;;;;;0.30;0.28;;;14.40;99.90;;;;;;5037182;28;20118;-86
2022/08/20 02:46:51;;;;;;;0.20;0.20;;;14.40;99.90;;;;;;5021272;28;20106;-85
2022/08/20 02:49:18;;;;;;;0.30;0.30;;;14.40;99.90;;;;;;5024723;28;20118;-86
2022/08/20 02:51:45;;;;;;;0.47;0.30;;;14.40;99.90;;;;;;5022276;28;20067;-86
2022/08/20 02:54:12;;;;;;;0.20;0.20;;;14.30;99.90;;;;;;5017881;28;20447;-84
2022/08/20 02:56:39;;;;;;;0.38;0.38;;;14.30;99.90;;;;;;5017934;28;20498;-85
2022/08/20 02:59:06;;;;;;;0.20;0.20;;;14.30;99.90;;;;;;5033564;28;20122;-87
2022/08/20 03:01:37;;;;;;;0.30;0.30;;;14.20;99.90;;;;;;5002454;28;20075;-86
2022/08/20 03:04:04;;;;;;;0.43;0.30;;;14.20;99.90;;;;;;5021159;28;20104;-86
2022/08/20 03:06:31;;;;;;;0.45;0.20;;;14.20;99.90;;;;;;5022139;28;20561;-87
2022/08/20 03:08:59;;;;;;;0.30;0.30;;;14.10;99.90;;;;;;5038057;28;20048;-88
2022/08/20 03:11:26;;;;;;;0.30;0.30;;;14.00;99.90;;;;;;5020019;28;20128;-86
2022/08/20 03:13:53;;;;;;;0.45;0.35;;;14.00;99.90;;;;;;5034909;28;20507;-84
2022/08/20 03:16:20;;;;;;;0.30;0.30;;;14.00;99.90;;;;;;5045564;28;20052;-86
2022/08/20 03:18:47;;;;;;;0.52;0.30;;;14.00;99.90;;;;;;5042782;28;20452;-87
2022/08/20 03:21:17;;;;;;;0.45;0.22;;;14.00;99.90;;;;;;5041409;28;20060;-86
2022/08/20 03:23:44;;;;;;;0.35;0.35;;;13.90;99.90;;;;;;5025103;28;20184;-84
2022/08/20 03:26:11;;;;;;;0.55;0.40;;;13.90;99.90;;;;;;5053212;28;20044;-84
2022/08/20 03:28:40;;;;;;;0.38;0.38;;;13.80;99.90;;;;;;5053344;28;20064;-86
2022/08/20 03:31:07;;;;;;;0.52;0.40;;;13.80;99.90;;;;;;5041887;28;20044;-86
2022/08/20 03:33:35;;;;;;;1.17;0.20;;;13.80;99.90;;;;;;5031977;28;20100;-86
2022/08/20 03:36:07;;;;;;;0.40;0.40;;;13.90;99.90;;;;;;5009343;28;20090;-85
2022/08/20 03:38:34;;;;;;;0.30;0.30;;;13.90;99.90;;;;;;5034346;28;20083;-84
2022/08/20 03:41:01;;;;;;;0.20;0.13;;;13.90;99.90;;;;;;5020038;28;20044;-86
2022/08/20 03:43:28;;;;;;;0.30;0.30;;;13.80;99.90;;;;;;5027522;28;20454;-85
2022/08/20 03:45:55;;;;;;;0.30;0.30;;;13.70;99.90;;;;;;5060061;28;20068;-86
2022/08/20 03:48:22;;;;;;;0.22;0.22;;;13.70;99.90;;;;;;5036992;28;20102;-88
2022/08/20 03:50:49;;;;;;;0.30;0.30;;;13.70;99.90;;;;;;5021881;28;20044;-87
2022/08/20 03:53:16;;;;;;;0.30;0.22;;;13.60;99.90;;;;;;5021226;28;20888;-89
2022/08/20 03:55:46;;;;;;;0.20;0.20;;;13.60;99.90;;;;;;5019998;28;20052;-87
2022/08/20 03:58:23;;;;;;;0.55;0.38;;;13.60;99.90;;;;;;5024538;28;20056;-87
2022/08/20 04:01:02;;;;;;;0.40;0.30;;;13.70;99.90;;;;;;5025333;28;20052;-87
2022/08/20 04:03:29;;;;;;;0.38;0.38;;;13.70;99.90;;;;;;5020241;28;20056;-87
2022/08/20 04:05:58;;;;;;;0.30;0.28;;;13.70;99.90;;;;;;5034081;28;20044;-86
2022/08/20 04:08:26;;;;;;;0.32;0.30;;;13.60;99.90;;;;;;5045307;28;20094;-87
2022/08/20 04:10:53;;;;;;;0.30;0.22;;;13.50;99.90;;;;;;5021204;28;20045;-86
2022/08/20 04:13:22;;;;;;;0.45;0.32;;;13.50;99.90;;;;;;5020030;28;20483;-86
2022/08/20 04:15:49;;;;;;;0.30;0.30;;;13.40;99.90;;;;;;5033974;28;20048;-85
2022/08/20 04:18:21;;;;;;;0.40;0.40;;;13.50;99.90;;;;;;5052668;28;20059;-86
2022/08/20 04:20:48;;;;;;;0.38;0.30;;;13.40;99.90;;;;;;5045008;28;20819;-84
2022/08/20 04:23:15;;;;;;;0.35;0.35;;;13.40;99.90;;;;;;5019389;28;20048;-86
2022/08/20 04:25:43;;;;;;;0.80;0.35;;;13.40;99.90;;;;;;5027111;28;20053;-89
2022/08/20 04:28:12;;;;;;;0.43;0.40;;;13.50;99.90;;;;;;5022066;28;20408;-89
2022/08/20 04:30:41;;;;;;;0.77;0.68;;;13.50;99.90;;;;;;5028329;28;20040;-89
2022/08/20 04:33:18;;;;;;;0.65;0.40;;;13.40;99.90;;;;;;5029525;28;20158;-87
2022/08/20 04:36:01;;;;;;;0.28;0.20;;;13.40;99.90;;;;;;5042296;28;20056;-90
2022/08/20 04:38:28;;;;;;;0.73;0.30;;;13.30;99.90;;;;;;5022453;28;20053;-89
2022/08/20 04:41:15;;;;;;;0.38;0.38;;;13.30;99.90;;;;;;5028155;28;20092;-85
2022/08/20 04:43:52;;;;;;;0.43;0.35;;;13.40;99.90;;;;;;5025575;28;20045;-86
2022/08/20 04:46:19;;;;;;;0.30;0.30;;;13.30;99.90;;;;;;5035789;28;20045;-86
2022/08/20 04:48:46;;;;;;;0.20;0.20;;;13.30;99.90;;;;;;5019140;28;20102;-85
2022/08/20 04:51:14;;;;;;;0.35;0.35;;;13.30;99.90;;;;;;5020311;28;20053;-86
2022/08/20 04:53:41;;;;;;;0.60;0.50;;;13.20;99.90;;;;;;5018799;28;20075;-85
2022/08/20 04:56:08;;;;;;;0.50;0.43;;;13.20;99.90;;;;;;5000257;28;20052;-87
2022/08/20 04:58:37;;;;;;;1.10;0.40;;;13.20;99.90;;;;;;5032690;28;20045;-85
2022/08/20 05:01:06;;;;;;;0.30;0.30;;;13.20;99.90;;;;;;5018896;28;20052;-86
2022/08/20 05:03:36;;;;;;;0.30;0.30;;;13.20;99.90;;;;;;5031740;28;20040;-86
2022/08/20 05:06:04;;;;;;;0.57;0.40;;;13.20;99.90;;;;;;5055352;28;20044;-86
2022/08/20 05:08:32;;;;;;;0.90;0.52;;;13.20;99.90;;;;;;5040065;28;20052;-87
2022/08/20 05:11:01;;;;;;;0.40;0.40;;;13.20;99.90;;;;;;5033143;28;20041;-88
2022/08/20 05:13:49;;;;;;;0.30;0.30;;;13.30;99.90;;;;;;5038328;28;20074;-86
2022/08/20 05:16:16;;;;;;;0.55;0.40;;;13.30;99.90;;;;;;5037666;28;20117;-86
2022/08/20 05:18:44;;;;;;;0.32;0.32;;;13.30;99.90;;;;;;5017833;28;20040;-87
2022/08/20 05:21:18;;;;;;;0.70;0.32;;;13.30;99.90;;;;;;5022490;28;20072;-87
2022/08/20 05:23:45;;;;;;;0.50;0.40;;;13.30;99.90;;;;;;5018417;28;20041;-87
2022/08/20 05:26:14;;;;;;;0.40;0.40;;;13.30;99.90;;;;;;5053422;28;20118;-89
2022/08/20 05:28:42;;;;;;;0.30;0.30;;;13.30;99.90;;;;;;5055513;28;20191;-89
2022/08/20 05:31:24;;;;;;;0.40;0.40;;;13.30;99.90;;;;;;5042642;28;20048;-89
2022/08/20 05:34:08;;;;;;;0.47;0.35;;;13.30;99.90;;;;;;5024413;28;20067;-89
2022/08/20 05:36:44;;;;;;;1.50;0.45;;;13.40;99.90;;;;;;5049301;28;20079;-88
2022/08/20 05:39:14;;;;;;;0.30;0.30;;;13.40;99.90;;;;;;5021614;28;20783;-89
2022/08/20 05:41:41;;;;;;;0.45;0.30;;;13.50;99.90;;;;;;5021633;28;20043;-86
2022/08/20 05:44:09;;;;;;;0.90;0.25;;;13.50;99.90;;;;;;5028784;28;20098;-85
2022/08/20 05:46:39;;;;;;;0.40;0.40;;;13.60;99.90;;;;;;5018167;28;20057;-86
2022/08/20 05:49:15;;;;;;;0.30;0.30;;;13.60;99.90;;;;;;5021293;28;20053;-84
2022/08/20 05:51:42;;;;;;;0.30;0.30;;;13.60;99.90;;;;;;5021492;28;20044;-83
2022/08/20 05:54:10;;;;;;;0.50;0.47;;;13.70;99.90;;;;;;5039410;28;20048;-84
2022/08/20 05:56:37;;;;;;;0.77;0.40;;;13.70;99.90;;;;;;5031700;28;20056;-85
2022/08/20 05:59:04;;;;;;;0.35;0.30;;;13.80;99.90;;;;;;5032090;28;20061;-86
2022/08/20 06:01:32;;;;;;;0.60;0.45;;;13.80;99.90;;;;;;5020099;28;20495;-84
2022/08/20 06:06:44;;;;;;;0.38;0.30;;;14.00;99.90;;;;;;5041093;28;20572;-83
2022/08/20 06:09:14;;;;;;;0.30;0.30;;;14.10;99.90;;;;;;5020280;28;20427;-87
2022/08/20 06:11:41;;;;;;;0.30;0.30;;;14.20;99.90;;;;;;5015990;28;20527;-85
2022/08/20 06:14:08;;;;;;;0.52;0.30;;;14.30;99.90;;;;;;5025439;28;20444;-86
2022/08/20 06:16:38;;;;;;;0.35;0.28;;;14.30;99.90;;;;;;5071332;28;20139;-88
2022/08/20 06:19:23;;;;;;;0.38;0.30;;;14.40;99.90;;;;;;5059511;28;20226;-86
2022/08/20 06:21:52;;;;;;;0.40;0.40;;;14.50;99.90;;;;;;5043809;28;20152;-86
2022/08/20 06:24:20;;;;;;;0.50;0.45;;;14.60;99.90;;;;;;5022248;28;20150;-88
2022/08/20 06:26:47;;;;;;;0.40;0.40;;;14.60;99.90;;;;;;5018331;28;20059;-88
2022/08/20 06:29:14;;;;;;;1.05;0.50;;;14.70;99.90;;;;;;5034092;28;20160;-88
2022/08/20 06:31:41;;;;;;;0.30;0.30;;;14.80;99.90;;;;;;5023976;28;20122;-88
2022/08/20 06:34:11;;;;;;;1.63;0.80;;;14.90;99.90;;;;;;5031778;28;20052;-88
2022/08/20 06:36:38;;;;;;;1.45;0.75;;;15.00;99.90;;;;;;5025053;28;20052;-86
2022/08/20 06:39:05;;;;;;;1.13;0.50;;;15.10;99.90;;;;;;5022048;28;20056;-87
2022/08/20 06:41:32;;;;;;;1.33;0.60;;;15.20;99.90;;;;;;5019727;28;20118;-88
2022/08/20 06:44:02;;;;;;;0.47;0.32;;;15.30;99.90;;;;;;5042615;28;20049;-87
2022/08/20 06:46:29;;;;;;;0.68;0.50;;;15.40;99.90;;;;;;5022718;28;20526;-85
2022/08/20 06:48:56;;;;;;;1.42;0.65;;;15.50;99.90;;;;;;5028326;28;20066;-86
2022/08/20 06:51:23;;;;;;;1.27;0.60;;;15.70;99.90;;;;;;5028256;28;20148;-86
2022/08/20 06:53:53;;;;;;;1.67;0.65;;;15.80;99.90;;;;;;5037517;28;20084;-89
2022/08/20 06:56:20;;;;;;;2.05;0.70;;;15.90;99.90;;;;;;5033618;28;20099;-90
2022/08/20 06:58:48;;;;;;;1.65;0.80;;;16.00;99.90;;;;;;5037641;28;20044;-89
2022/08/20 07:01:19;;;;;;;2.03;0.93;;;16.20;99.90;;;;;;5023558;28;20057;-88
2022/08/20 07:03:51;;;;;;;0.68;0.50;;;16.30;99.90;;;;;;5044094;28;20059;-89
2022/08/20 07:06:24;;;;;;;1.77;0.80;;;16.40;99.90;;;;;;5022042;28;20453;-88
2022/08/20 07:08:52;;;;;;;3.35;1.17;;;16.40;99.90;;;;;;5022417;28;20052;-90
2022/08/20 07:11:19;;;;;;;0.95;0.60;;;16.50;99.90;;;;;;5020927;28;20060;-89
2022/08/20 07:13:55;;;;;;;2.40;0.95;;;16.60;99.90;;;;;;5044321;28;20179;-87
2022/08/20 07:16:22;;;;;;;1.10;0.80;;;16.60;99.90;;;;;;5024579;28;20061;-89
2022/08/20 07:18:49;;;;;;;1.65;0.82;;;16.70;99.90;;;;;;5020905;28;20048;-87
2022/08/20 07:21:16;;;;;;;2.25;0.95;;;16.80;99.90;;;;;;5025995;28;20044;-88
2022/08/20 07:23:43;;;;;;;2.08;0.90;;;16.80;99.90;;;;;;5028740;28;20052;-88
2022/08/20 07:26:11;;;;;;;0.88;0.55;;;16.90;99.90;;;;;;5039348;28;20048;-88
2022/08/20 07:28:39;;;;;;;1.48;0.50;;;17.00;99.90;;;;;;5010994;28;20453;-88
2022/08/20 07:33:52;;;;;;;0.77;0.60;;;17.10;99.90;;;;;;5045528;28;20544;-88
2022/08/20 07:36:19;;;;;;;0.95;0.57;;;17.20;99.90;;;;;;5052560;28;20480;-86
2022/08/20 07:38:51;;;;;;;1.05;0.70;;;17.30;99.90;;;;;;5027957;28;20057;-88
2022/08/20 07:41:18;;;;;;;2.40;0.80;;;17.50;99.90;;;;;;5039630;28;20052;-88
2022/08/20 07:43:45;;;;;;;1.83;0.90;;;17.60;99.90;;;;;;5020021;28;20053;-89
2022/08/20 07:46:17;;;;;;;1.05;0.80;;;17.60;99.90;;;;;;5045323;28;20051;-88
2022/08/20 07:48:48;;;;;;;1.55;0.80;;;17.60;99.90;;;;;;5039560;28;20049;-89
2022/08/20 07:51:18;;;;;;;1.75;1.00;;;17.70;99.90;;;;;;5043018;28;20151;-88
2022/08/20 07:53:45;;;;;;;1.45;0.90;;;17.80;99.90;;;;;;5055535;28;20059;-89
2022/08/20 07:56:14;;;;;;;1.40;0.70;;;17.80;99.90;;;;;;5025807;28;20045;-88
2022/08/20 07:58:49;;;;;;;2.13;0.82;;;17.90;99.90;;;;;;5030231;28;20068;-88
2022/08/20 08:01:28;;;;;;;2.78;0.88;;;18.00;99.90;;;;;;5025253;28;20052;-87
2022/08/20 08:03:56;;;;;;;2.10;1.30;;;18.10;99.90;;;;;;5053697;28;20066;-87
2022/08/20 08:06:23;;;;;;;1.23;0.80;;;18.20;99.90;;;;;;5020876;28;20530;-88
2022/08/20 08:09:08;;;;;;;2.58;0.93;;;18.20;99.90;;;;;;5026293;28;20063;-88
2022/08/20 08:11:38;;;;;;;2.15;1.05;;;18.30;99.90;;;;;;5016100;28;20048;-87
2022/08/20 08:14:07;;;;;;;1.30;0.75;;;18.30;99.90;;;;;;5046246;28;20049;-87
2022/08/20 08:16:44;;;;;;;3.03;1.17;;;18.30;99.90;;;;;;5049094;28;20055;-86
2022/08/20 08:19:23;;;;;;;2.47;1.50;;;18.40;99.90;;;;;;5040948;28;20048;-85
2022/08/20 08:21:55;;;;;;;2.47;0.90;;;18.50;99.90;;;;;;5047016;28;20112;-84
2022/08/20 08:24:25;;;;;;;1.98;1.17;;;18.60;99.90;;;;;;5064023;28;20056;-88
2022/08/20 08:26:55;;;;;;;2.45;1.05;;;18.70;99.90;;;;;;5048906;28;20048;-85
2022/08/20 08:29:32;;;;;;;1.80;1.00;;;18.80;99.90;;;;;;5038499;28;20148;-91
2022/08/20 08:32:00;;;;;;;2.70;0.88;;;18.80;99.90;;;;;;5023226;28;20052;-90
2022/08/20 08:34:28;;;;;;;1.33;0.80;;;18.90;99.90;;;;;;5035882;28;20049;-94
2022/08/20 08:36:57;;;;;;;2.10;0.82;;;19.00;99.90;;;;;;5046288;28;20106;-89
2022/08/20 08:39:24;;;;;;;1.77;0.63;;;19.10;99.90;;;;;;5037668;28;20053;-89
2022/08/20 09:28:43;;;;;;;1.05;0.70;;;20.90;99.90;;;;;;5079789;22;20068;-82
2022/08/20 09:31:17;;;;;;;1.38;0.52;;;21.00;99.90;;;;;;5050650;28;20395;-82
2022/08/20 09:33:47;;;;;;;1.25;0.60;;;21.10;99.90;;;;;;5032781;28;20053;-82
2022/08/20 09:36:14;;;;;;;1.60;0.88;;;21.10;99.90;;;;;;5033241;28;20568;-82
2022/08/20 09:38:59;;;;;;;1.27;0.82;;;21.10;99.90;;;;;;5031791;28;20056;-83
2022/08/20 09:41:28;;;;;;;0.60;0.50;;;21.40;99.90;;;;;;5023839;28;20139;-81
2022/08/20 09:43:56;;;;;;;0.55;0.50;;;21.60;99.80;;;;;;5016112;28;20056;-83
2022/08/20 09:46:23;;;;;;;0.73;0.47;;;21.70;99.40;;;;;;5038875;28;20139;-82
2022/08/20 09:48:53;;;;;;;1.13;0.55;;;21.90;98.90;;;;;;5017610;28;20049;-82
2022/08/20 09:51:20;;;;;;;1.33;0.70;;;22.00;98.60;;;;;;5005078;28;20064;-83
2022/08/20 09:53:47;;;;;;;0.77;0.63;;;22.00;98.10;;;;;;5046562;28;20040;-84
2022/08/20 09:56:14;;;;;;;1.17;0.70;;;22.10;97.80;;;;;;5045820;28;20125;-84
2022/08/20 09:58:49;;;;;;;0.93;0.63;;;22.10;97.80;;;;;;5024205;28;20074;-83
2022/08/20 10:01:17;;;;;;;2.13;0.80;;;22.10;97.40;;;;;;5032601;28;20924;-84
2022/08/20 10:03:46;;;;;;;2.28;0.77;;;22.10;97.80;;;;;;5033767;28;20049;-83
2022/08/20 10:06:15;;;;;;;1.58;0.85;;;22.00;98.00;;;;;;5027779;28;20049;-83
2022/08/20 10:08:43;;;;;;;2.30;0.60;;;22.00;98.30;;;;;;5030927;28;20107;-84
2022/08/20 10:11:09;;;;;;;0.85;0.63;;;22.20;98.10;;;;;;5046901;28;20053;-83
2022/08/20 10:13:36;;;;;;;1.02;0.50;;;22.20;97.50;;;;;;5027452;28;20502;-83
2022/08/20 10:16:03;;;;;;;0.70;0.40;;;22.20;97.70;;;;;;5029841;28;20140;-84
2022/08/20 10:18:31;;;;;;;0.77;0.50;;;22.20;98.00;;;;;;5047046;28;20503;-83
2022/08/20 10:20:57;;;;;;;1.08;0.60;;;22.30;97.70;;;;;;5046628;28;20080;-84
2022/08/20 10:23:26;;;;;;;2.42;0.90;;;22.30;97.30;;;;;;5030537;28;20049;-83
2022/08/20 10:25:52;;;;;;;1.88;0.70;;;22.30;97.20;;;;;;5017635;28;20088;-82
2022/08/20 10:28:19;;;;;;;1.80;0.82;;;22.10;97.30;;;;;;5011933;28;20053;-84
2022/08/20 10:30:46;;;;;;;2.13;1.33;;;22.10;97.00;;;;;;5010086;28;20107;-81
2022/08/20 10:33:13;;;;;;;1.40;0.70;;;22.20;97.10;;;;;;5012980;28;20547;-82
2022/08/20 10:35:40;;;;;;;0.88;0.60;;;22.20;97.10;;;;;;5021308;28;20091;-83
2022/08/20 10:38:07;;;;;;;1.38;0.55;;;22.40;96.90;;;;;;5027364;28;20560;-83
2022/08/20 10:40:34;;;;;;;1.20;0.70;;;22.60;96.50;;;;;;5026917;28;20130;-83
2022/08/20 10:43:01;;;;;;;1.23;0.60;;;22.60;96.90;;;;;;5024604;28;20045;-83
2022/08/20 10:45:28;;;;;;;1.17;0.70;;;22.50;96.60;;;;;;5042383;28;20111;-83
2022/08/20 10:47:58;;;;;;;0.40;0.40;;;22.50;97.20;;;;;;5027124;28;20120;-83
2022/08/20 10:50:25;;;;;;;0.80;0.50;;;22.60;96.70;;;;;;5026234;28;20052;-83
2022/08/20 10:52:56;;;;;;;1.10;0.50;;;22.70;96.70;;;;;;5043388;28;20065;-83
2022/08/20 10:55:23;;;;;;;2.03;0.90;;;22.80;96.50;;;;;;5026547;28;20122;-84
2022/08/20 10:57:50;;;;;;;0.98;0.57;;;22.90;96.30;;;;;;5027127;28;20049;-82
2022/08/20 11:00:17;;;;;;;0.88;0.57;;;22.90;96.30;;;;;;5043545;28;20875;-83
2022/08/20 11:02:45;;;;;;;1.17;0.60;;;22.70;95.90;;;;;;5026473;28;20052;-83
2022/08/20 11:05:11;;;;;;;0.85;0.55;;;22.60;96.20;;;;;;4992902;28;20108;-83
2022/08/20 11:07:40;;;;;;;2.08;0.85;;;22.50;96.30;;;;;;5026824;28;20135;-83
2022/08/20 11:10:21;;;;;;;1.70;0.88;;;22.50;96.60;;;;;;5026292;28;20172;-84
2022/08/20 11:12:48;;;;;;;0.75;0.52;;;22.60;96.60;;;;;;5030448;28;20052;-81
2022/08/20 11:15:15;;;;;;;1.90;0.70;;;22.70;96.60;;;;;;5022121;28;20059;-81
2022/08/20 11:17:42;;;;;;;0.85;0.60;;;22.80;96.10;;;;;;5013412;28;20069;-83
2022/08/20 11:20:10;;;;;;;0.90;0.52;;;22.90;95.70;;;;;;4997870;28;20679;-83
2022/08/20 11:27:06;;;;;;;;;;;;;;;;;;;;;
2022/08/20 11:29:55;;;;;;;1.10;0.60;;;23.20;95.40;;;;;;4931157;29;20055;-83
2022/08/20 11:51:49;;;;;;;0.98;0.70;;;23.60;93.80;;;;;;4833085;29;20056;-83
2022/08/20 11:54:51;;;;;;;0.82;0.80;;;23.50;94.00;;;;;;4807298;29;20612;-83
2022/08/20 11:57:22;;;;;;;1.17;0.60;;;23.70;93.60;;;;;;4941798;28;20133;-83
2022/08/20 12:04:49;;;;;;;0.88;0.60;;;24.30;93.00;;;;;;4996410;28;20093;-82
2022/08/20 12:07:51;;;;;;;0.47;0.45;;;24.00;92.00;;;;;;4922130;29;20063;-81
2022/08/20 12:11:18;;;;;;;0.85;0.45;;;23.90;92.30;;;;;;4904123;29;20107;-81
2022/08/20 12:15:14;;;;;;;1.42;0.70;;;23.80;92.50;;;;;;4911400;29;20070;-82
2022/08/20 13:14:24;;;;;;;1.08;0.57;;;25.70;85.40;;;;;;6147863;22;1446030;-88
2022/08/20 13:16:57;;;;;;;0.40;0.40;;;25.70;86.60;;;;;;6109274;23;20498;-89
2022/08/20 13:19:27;;;;;;;0.73;0.40;;;25.70;86.80;;;;;;6111439;23;20104;-89
2022/08/20 13:21:54;;;;;;;0.73;0.40;;;25.50;86.40;;;;;;6108666;23;20032;-87
2022/08/20 13:24:24;;;;;;;0.73;0.50;;;25.40;86.70;;;;;;6110733;23;20045;-89
2022/08/20 13:26:51;;;;;;;0.40;0.40;;;25.50;86.30;;;;;;6109786;23;20025;-89
2022/08/20 13:29:18;;;;;;;1.15;0.50;;;25.60;87.90;;;;;;6109140;23;20338;-87
2022/08/20 13:31:45;;;;;;;0.88;0.50;;;25.50;87.30;;;;;;6108102;23;20021;-88
2022/08/20 13:34:12;;;;;;;0.40;0.40;;;25.10;86.00;;;;;;6102975;23;20044;-88
2022/08/20 13:36:39;;;;;;;0.70;0.68;;;24.90;86.60;;;;;;6097215;23;20087;-88
2022/08/20 13:39:06;;;;;;;0.45;0.40;;;24.80;87.90;;;;;;6097889;23;20321;-88
2022/08/20 13:41:33;;;;;;;1.90;0.70;;;24.70;87.70;;;;;;6096507;23;20345;-88
2022/08/20 13:44:00;;;;;;;0.95;0.50;;;24.80;87.30;;;;;;6097529;23;20048;-89
2022/08/20 13:46:27;;;;;;;0.82;0.60;;;25.00;86.90;;;;;;6121209;23;20258;-89
2022/08/20 13:48:54;;;;;;;1.90;0.80;;;25.70;85.50;;;;;;6097130;23;20022;-87
2022/08/20 13:51:21;;;;;;;0.77;0.55;;;25.80;85.20;;;;;;6096324;23;20480;-88
2022/08/20 13:53:53;;;;;;;0.88;0.60;;;26.00;85.30;;;;;;6098758;23;20041;-88
2022/08/20 13:56:21;;;;;;;1.38;0.80;;;26.50;84.40;;;;;;6096908;23;20022;-90
2022/08/20 13:58:48;;;;;;;1.23;0.70;;;26.70;83.40;;;;;;6097602;23;20025;-89
2022/08/20 14:01:18;;;;;;;1.00;0.80;;;26.70;83.60;;;;;;6098366;23;20029;-89
2022/08/20 14:03:46;;;;;;;1.63;1.00;;;27.00;83.80;;;;;;6120767;23;20044;-89
2022/08/20 14:06:16;;;;;;;0.95;0.65;;;28.10;81.70;;;;;;6098383;23;20064;-89
2022/08/20 14:08:43;;;;;;;0.90;0.55;;;28.30;79.70;;;;;;6121166;23;20013;-89
2022/08/20 14:11:10;;;;;;;0.63;0.47;;;27.80;79.70;;;;;;6096298;23;20026;-89
2022/08/20 14:13:43;;;;;;;1.00;0.85;;;27.40;80.40;;;;;;6086227;23;20029;-88
2022/08/20 14:16:10;;;;;;;1.10;0.70;;;28.10;79.70;;;;;;6044056;23;20057;-88
2022/08/20 14:18:54;;;;;;;;;;;29.00;78.40;;;;;;6054920;23;20022;-88
2022/08/20 14:21:23;;;;;;;0.60;0.40;;;29.80;77.20;;;;;;6075923;23;19917;-89
2022/08/20 14:23:51;;;;;;;1.00;0.45;;;29.30;76.50;;;;;;6049585;23;20080;-89
2022/08/20 14:26:18;;;;;;;0.70;0.52;;;28.80;76.50;;;;;;6069413;23;20026;-90
2022/08/20 14:28:45;;;;;;;0.68;0.57;;;28.50;77.50;;;;;;6045304;23;20792;-89
2022/08/20 14:31:12;;;;;;;0.68;0.30;;;29.40;76.60;;;;;;6044299;23;20057;-89
2022/08/20 14:33:41;;;;;;;0.40;0.40;;;29.50;75.30;;;;;;6045418;23;20093;-88
2022/08/20 14:36:10;;;;;;;1.23;0.50;;;29.80;75.50;;;;;;6043803;23;20068;-88
2022/08/20 14:38:43;;;;;;;0.77;0.47;;;29.40;75.40;;;;;;6043738;23;20021;-88
2022/08/20 14:41:10;;;;;;;0.88;0.60;;;29.60;76.00;;;;;;6045398;23;20021;-87
2022/08/20 14:43:37;;;;;;;0.95;0.60;;;30.10;75.20;;;;;;6065838;23;20030;-88
2022/08/20 14:46:06;;;;;;;0.82;0.63;;;30.80;74.30;;;;;;6043064;23;20018;-88
2022/08/20 14:48:33;;;;;;;0.80;0.40;;;30.20;73.20;;;;;;6043805;23;20115;-94
2022/08/20 14:51:01;;;;;;;0.40;0.40;;;29.70;75.50;;;;;;6046416;23;20026;-89
2022/08/20 14:53:29;;;;;;;0.60;0.50;;;29.40;74.90;;;;;;6049778;23;20022;-95
2022/08/20 14:55:56;;;;;;;0.32;0.32;;;30.30;74.10;;;;;;6045287;23;20026;-91
2022/08/20 14:58:23;;;;;;;0.43;0.43;;;30.60;72.60;;;;;;6049888;23;20022;-94
2022/08/20 15:00:52;;;;;;;0.57;0.40;;;31.00;72.30;;;;;;6053930;23;20018;-92
2022/08/20 15:03:22;;;;;;;0.88;0.68;;;31.40;71.00;;;;;;6050819;23;20319;-90
2022/08/20 15:05:49;;;;;;;0.60;0.50;;;31.00;71.10;;;;;;6049848;23;20018;-95
2022/08/20 15:08:17;;;;;;;0.80;0.70;;;31.20;71.20;;;;;;6047573;23;20096;-95
2022/08/20 15:10:44;;;;;;;0.65;0.40;;;32.00;69.70;;;;;;6048053;23;20309;-90
2022/08/20 15:13:11;;;;;;;0.52;0.30;;;32.50;69.80;;;;;;6046284;23;20398;-90
2022/08/20 15:15:39;;;;;;;0.85;0.60;;;32.40;68.60;;;;;;6069367;23;20374;-90
2022/08/20 15:18:06;;;;;;;0.82;0.50;;;32.50;68.20;;;;;;6045281;23;20484;-90
2022/08/20 15:20:34;;;;;;;1.00;0.47;;;32.10;68.50;;;;;;6045207;23;20026;-90
2022/08/20 15:23:01;;;;;;;1.08;0.60;;;32.50;68.20;;;;;;6071622;23;20014;-92
2022/08/20 15:25:29;;;;;;;0.50;0.50;;;33.00;67.60;;;;;;6049222;23;20025;-95
2022/08/20 15:28:03;;;;;;;0.50;0.50;;;33.30;66.80;;;;;;6054916;23;20093;-92